createdAt,value
2023-02-27T00:02:22.228Z,4.10
2023-02-27T00:05:03.240Z,4.20
2023-02-27T00:07:39.162Z,4.10
2023-02-27T00:10:22.935Z,4.10
2023-02-27T00:12:57.749Z,4.30
2023-02-27T00:15:32.553Z,3.90
2023-02-27T00:18:08.103Z,4.30
2023-02-27T00:20:42.971Z,4.60
2023-02-27T00:23:22.767Z,4.60
2023-02-27T00:26:01.853Z,4.50
2023-02-27T00:28:40.753Z,4.70
2023-02-27T00:31:13.607Z,4.40
2023-02-27T00:33:45.569Z,3.60
2023-02-27T00:36:22.102Z,4.30
2023-02-27T00:38:59.324Z,4.00
2023-02-27T00:41:32.011Z,3.90
2023-02-27T00:44:05.927Z,4.00
2023-02-27T00:46:43.935Z,4.00
2023-02-27T00:49:25.729Z,4.00
2023-02-27T00:52:08.750Z,3.60
2023-02-27T00:54:49.292Z,4.00
2023-02-27T00:57:24.145Z,3.60
2023-02-27T01:00:05.307Z,4.30
2023-02-27T01:02:45.064Z,4.50
2023-02-27T01:05:17.815Z,4.10
2023-02-27T01:07:56.713Z,4.00
2023-02-27T01:10:30.590Z,4.50
2023-02-27T01:13:07.007Z,4.20
2023-02-27T01:15:50.620Z,4.90
2023-02-27T01:18:26.673Z,4.50
2023-02-27T01:21:07.304Z,4.40
2023-02-27T01:23:44.139Z,4.90
2023-02-27T01:26:37.885Z,4.60
2023-02-27T01:29:10.985Z,4.50
2023-02-27T01:31:53.289Z,4.60
2023-02-27T01:34:27.301Z,4.40
2023-02-27T01:37:15.530Z,4.50
2023-02-27T01:39:56.382Z,4.60
2023-02-27T01:42:42.888Z,5.60
2023-02-27T01:45:35.370Z,4.70
2023-02-27T01:48:26.769Z,4.60
2023-02-27T01:51:06.431Z,4.40
2023-02-27T01:53:56.369Z,4.80
2023-02-27T01:56:36.274Z,4.90
2023-02-27T01:59:20.262Z,4.90
2023-02-27T02:01:56.809Z,4.50
2023-02-27T02:04:34.209Z,5.10
2023-02-27T02:07:29.784Z,4.50
2023-02-27T02:10:18.043Z,4.40
2023-02-27T02:12:52.275Z,4.70
2023-02-27T02:15:38.352Z,5.30
2023-02-27T02:18:29.319Z,5.10
2023-02-27T02:21:42.453Z,5.40
2023-02-27T02:24:46.464Z,5.10
2023-02-27T02:27:44.546Z,5.10
2023-02-27T02:30:58.436Z,4.50
2023-02-27T02:34:20.004Z,4.40
2023-02-27T02:37:41.094Z,4.20
2023-02-27T02:40:41.055Z,4.80
2023-02-27T02:43:29.248Z,4.00
2023-02-27T02:46:11.448Z,4.40
2023-02-27T02:48:59.863Z,4.00
2023-02-27T02:51:46.519Z,4.00
2023-02-27T02:54:31.627Z,4.20
2023-02-27T02:57:12.013Z,3.70
2023-02-27T03:00:00.054Z,4.10
2023-02-27T03:02:39.936Z,3.90
2023-02-27T03:05:22.049Z,4.10
2023-02-27T03:08:04.763Z,4.50
2023-02-27T03:10:45.490Z,4.30
2023-02-27T03:13:36.448Z,4.50
2023-02-27T03:16:25.723Z,4.30
2023-02-27T03:19:08.613Z,4.60
2023-02-27T03:21:46.028Z,4.60
2023-02-27T03:24:27.172Z,4.80
2023-02-27T03:27:05.311Z,4.60
2023-02-27T03:29:46.194Z,4.80
2023-02-27T03:32:24.220Z,4.70
2023-02-27T03:35:00.477Z,4.80
2023-02-27T03:37:47.571Z,4.60
2023-02-27T03:40:31.603Z,4.90
2023-02-27T03:43:23.116Z,4.60
2023-02-27T03:46:10.771Z,4.80
2023-02-27T03:48:47.589Z,4.70
2023-02-27T03:51:27.373Z,5.00
2023-02-27T03:54:08.566Z,4.40
2023-02-27T03:56:47.284Z,5.00
2023-02-27T03:59:22.590Z,4.90
2023-02-27T04:02:07.088Z,4.60
2023-02-27T04:04:41.225Z,4.70
2023-02-27T04:07:48.501Z,5.00
2023-02-27T04:10:58.008Z,4.60
2023-02-27T04:13:45.304Z,4.60
2023-02-27T04:16:52.369Z,4.60
2023-02-27T04:20:00.000Z,4.50
2023-02-27T04:22:40.172Z,4.20
2023-02-27T04:25:34.542Z,4.20
2023-02-27T04:28:37.385Z,4.20
2023-02-27T04:31:22.269Z,4.60
2023-02-27T04:34:04.553Z,4.60
2023-02-27T04:36:43.708Z,4.60
2023-02-27T04:39:24.700Z,4.40
2023-02-27T04:42:06.025Z,4.40
2023-02-27T04:44:44.324Z,4.80
2023-02-27T04:47:21.741Z,4.00
2023-02-27T04:49:57.996Z,3.90
2023-02-27T04:52:42.524Z,4.20
2023-02-27T04:55:22.169Z,3.90
2023-02-27T04:58:06.177Z,4.40
2023-02-27T05:00:52.744Z,4.70
2023-02-27T05:03:35.486Z,4.60
2023-02-27T05:06:20.790Z,4.40
2023-02-27T05:09:07.992Z,4.40
2023-02-27T05:11:51.878Z,4.60
2023-02-27T05:14:34.538Z,4.50
2023-02-27T05:17:12.704Z,4.50
2023-02-27T05:19:50.465Z,4.60
2023-02-27T05:22:35.252Z,4.30
2023-02-27T05:25:13.813Z,5.00
2023-02-27T05:27:52.081Z,4.30
2023-02-27T05:30:37.095Z,4.70
2023-02-27T05:33:20.537Z,4.60
2023-02-27T05:36:13.522Z,5.00
2023-02-27T05:38:56.596Z,4.60
2023-02-27T05:41:39.485Z,4.50
2023-02-27T05:44:30.172Z,6.40
2023-02-27T05:47:18.522Z,50.00
2023-02-27T05:49:57.131Z,17.00
2023-02-27T05:52:34.780Z,24.30
2023-02-27T05:55:18.809Z,43.10
2023-02-27T05:57:57.527Z,39.50
2023-02-27T06:00:45.186Z,18.60
2023-02-27T06:03:34.555Z,20.40
2023-02-27T06:06:23.516Z,6.90
2023-02-27T06:08:58.923Z,5.10
2023-02-27T06:11:41.438Z,5.60
2023-02-27T06:14:18.481Z,8.50
2023-02-27T06:16:58.747Z,6.80
2023-02-27T06:19:36.630Z,17.70
2023-02-27T06:22:10.094Z,10.60
2023-02-27T06:24:48.422Z,6.10
2023-02-27T06:27:26.382Z,34.20
2023-02-27T06:29:59.614Z,14.00
2023-02-27T06:32:35.955Z,8.40
2023-02-27T06:35:14.959Z,8.90
2023-02-27T06:37:54.977Z,9.00
2023-02-27T06:40:36.121Z,6.20
2023-02-27T06:43:08.717Z,6.80
2023-02-27T06:46:08.670Z,5.80
2023-02-27T06:48:43.268Z,5.20
2023-02-27T06:51:25.064Z,5.20
2023-02-27T06:53:58.140Z,6.50
2023-02-27T06:56:31.132Z,19.50
2023-02-27T06:59:05.495Z,18.80
2023-02-27T07:01:41.479Z,11.90
2023-02-27T07:04:26.747Z,12.40
2023-02-27T07:07:33.939Z,27.20
2023-02-27T07:09:57.105Z,18.30
2023-02-27T07:12:36.218Z,13.90
2023-02-27T07:15:17.645Z,17.10
2023-02-27T07:17:51.322Z,14.00
2023-02-27T07:20:27.876Z,8.50
2023-02-27T07:23:04.039Z,7.40
2023-02-27T07:25:46.281Z,7.60
2023-02-27T07:28:23.107Z,26.00
2023-02-27T07:30:58.121Z,17.90
2023-02-27T07:33:37.190Z,19.50
2023-02-27T07:36:16.270Z,6.90
2023-02-27T07:38:53.508Z,7.30
2023-02-27T07:41:31.148Z,6.00
2023-02-27T07:44:13.426Z,5.70
2023-02-27T07:46:48.367Z,12.30
2023-02-27T07:49:30.440Z,6.20
2023-02-27T07:52:10.795Z,6.10
2023-02-27T07:54:46.951Z,6.10
2023-02-27T07:57:22.301Z,7.60
2023-02-27T07:59:55.343Z,12.30
2023-02-27T08:02:29.666Z,11.10
2023-02-27T08:05:07.363Z,11.90
2023-02-27T08:07:41.188Z,49.30
2023-02-27T08:10:28.876Z,19.60
2023-02-27T08:13:09.088Z,13.50
2023-02-27T08:15:47.585Z,9.10
2023-02-27T08:18:24.117Z,25.10
2023-02-27T08:21:00.873Z,16.40
2023-02-27T08:23:38.575Z,30.90
2023-02-27T08:26:15.163Z,15.10
2023-02-27T08:28:47.342Z,9.90
2023-02-27T08:31:20.798Z,8.10
2023-02-27T08:34:07.786Z,7.00
2023-02-27T08:36:47.117Z,6.10
2023-02-27T08:39:24.783Z,7.20
2023-02-27T08:41:58.350Z,5.90
2023-02-27T08:44:32.976Z,6.60
2023-02-27T08:47:08.075Z,5.20
2023-02-27T08:49:49.756Z,5.00
2023-02-27T08:52:23.455Z,5.60
2023-02-27T08:54:58.465Z,6.50
2023-02-27T08:57:43.466Z,5.80
2023-02-27T09:00:26.328Z,8.60
2023-02-27T09:03:03.991Z,7.00
2023-02-27T09:05:39.013Z,108.20
2023-02-27T09:08:14.932Z,134.50
2023-02-27T09:10:53.494Z,19.40
2023-02-27T09:13:32.602Z,11.00
2023-02-27T09:16:05.209Z,14.10
2023-02-27T09:18:38.654Z,6.60
2023-02-27T09:21:13.362Z,6.60
2023-02-27T09:23:58.055Z,5.60
2023-02-27T09:26:44.994Z,6.20
2023-02-27T09:29:27.863Z,7.30
2023-02-27T09:31:59.844Z,5.30
2023-02-27T09:34:32.178Z,6.60
2023-02-27T09:37:08.926Z,7.10
2023-02-27T09:39:46.413Z,5.60
2023-02-27T09:42:27.123Z,5.40
2023-02-27T09:45:05.740Z,4.90
2023-02-27T09:47:51.603Z,5.30
2023-02-27T09:51:04.471Z,4.40
2023-02-27T09:53:45.750Z,4.90
2023-02-27T09:56:27.740Z,5.30
2023-02-27T09:59:11.865Z,4.70
2023-02-27T10:01:50.720Z,14.30
2023-02-27T10:04:43.394Z,6.50
2023-02-27T10:07:23.395Z,10.90
2023-02-27T10:10:10.003Z,7.90
2023-02-27T10:13:08.347Z,7.00
2023-02-27T10:15:45.795Z,5.30
2023-02-27T10:18:31.192Z,6.30
2023-02-27T10:21:16.073Z,7.90
2023-02-27T10:23:57.513Z,20.80
2023-02-27T10:26:34.644Z,14.60
2023-02-27T10:29:18.586Z,5.10
2023-02-27T10:32:00.310Z,2.90
2023-02-27T10:34:35.434Z,4.20
2023-02-27T10:37:19.601Z,3.90
2023-02-27T10:40:01.964Z,2.50
2023-02-27T10:42:43.322Z,5.00
2023-02-27T10:45:30.074Z,2.00
2023-02-27T10:48:06.706Z,2.50
2023-02-27T10:50:50.618Z,2.30
2023-02-27T10:53:41.942Z,3.00
2023-02-27T10:56:25.128Z,2.50
2023-02-27T10:59:08.815Z,2.60
2023-02-27T11:01:55.432Z,2.20
2023-02-27T11:04:33.992Z,2.30
2023-02-27T11:07:13.917Z,2.60
2023-02-27T11:10:02.859Z,2.70
2023-02-27T11:12:39.752Z,12.10
2023-02-27T11:15:29.193Z,8.00
2023-02-27T11:18:26.863Z,10.20
2023-02-27T11:21:20.464Z,49.40
2023-02-27T11:24:00.792Z,7.40
2023-02-27T11:26:39.364Z,3.90
2023-02-27T11:29:19.305Z,5.20
2023-02-27T11:32:01.456Z,4.00
2023-02-27T11:34:37.387Z,5.30
2023-02-27T11:37:29.388Z,4.00
2023-02-27T11:40:21.087Z,5.30
2023-02-27T11:42:58.533Z,2.30
2023-02-27T11:46:12.169Z,3.50
2023-02-27T11:48:31.909Z,3.90
2023-02-27T11:51:30.768Z,3.00
2023-02-27T11:54:21.776Z,16.00
2023-02-27T11:56:58.242Z,2.70
2023-02-27T11:59:47.308Z,2.20
2023-02-27T12:02:29.236Z,17.00
2023-02-27T12:05:08.946Z,34.60
2023-02-27T12:07:52.718Z,18.40
2023-02-27T12:11:20.643Z,46.80
2023-02-27T12:14:41.241Z,6.40
2023-02-27T12:17:41.389Z,3.70
2023-02-27T12:20:41.413Z,3.10
2023-02-27T12:23:40.930Z,2.40
2023-02-27T12:26:47.907Z,5.50
2023-02-27T12:29:36.762Z,4.60
2023-02-27T12:32:19.268Z,6.40
2023-02-27T12:35:05.576Z,6.20
2023-02-27T12:37:50.863Z,3.80
2023-02-27T12:40:32.843Z,6.80
2023-02-27T12:43:25.200Z,5.50
2023-02-27T12:46:38.034Z,4.00
2023-02-27T12:49:25.755Z,3.20
2023-02-27T12:52:14.123Z,7.20
2023-02-27T12:55:03.984Z,11.00
2023-02-27T12:58:08.430Z,4.50
2023-02-27T13:00:46.642Z,19.70
2023-02-27T13:03:28.513Z,25.80
2023-02-27T13:06:08.669Z,15.90
2023-02-27T13:09:11.055Z,24.70
2023-02-27T13:11:53.537Z,15.60
2023-02-27T13:14:47.008Z,24.70
2023-02-27T13:17:36.100Z,39.90
2023-02-27T13:20:27.349Z,20.40
2023-02-27T13:23:24.683Z,7.90
2023-02-27T13:26:18.602Z,13.80
2023-02-27T13:28:55.818Z,4.90
2023-02-27T13:31:37.072Z,9.10
2023-02-27T13:34:26.428Z,21.60
2023-02-27T13:37:08.794Z,25.20
2023-02-27T13:40:02.082Z,22.20
2023-02-27T13:42:54.471Z,16.20
2023-02-27T13:45:57.149Z,5.00
2023-02-27T13:48:55.990Z,6.50
2023-02-27T13:51:53.000Z,9.30
2023-02-27T13:54:27.671Z,23.50
2023-02-27T13:57:34.300Z,13.30
2023-02-27T14:00:20.845Z,10.40
2023-02-27T14:03:00.241Z,11.30
2023-02-27T14:05:37.143Z,9.50
2023-02-27T14:08:15.812Z,6.50
2023-02-27T14:10:59.972Z,8.30
2023-02-27T14:14:04.889Z,7.30
2023-02-27T14:16:58.594Z,50.70
2023-02-27T14:19:52.272Z,28.20
2023-02-27T14:22:39.910Z,65.50
2023-02-27T14:25:46.850Z,13.60
2023-02-27T14:28:30.206Z,3.20
2023-02-27T14:31:03.957Z,9.20
2023-02-27T14:33:42.055Z,4.90
2023-02-27T14:36:23.445Z,5.90
2023-02-27T14:38:58.013Z,6.90
2023-02-27T14:41:42.136Z,5.40
2023-02-27T14:44:21.104Z,4.30
2023-02-27T14:46:54.498Z,5.20
2023-02-27T14:49:30.665Z,7.70
2023-02-27T14:52:20.843Z,10.90
2023-02-27T14:54:54.251Z,8.30
2023-02-27T14:57:28.259Z,6.60
2023-02-27T15:00:00.350Z,6.30
2023-02-27T15:02:36.728Z,5.20
2023-02-27T15:05:24.784Z,6.30
2023-02-27T15:07:57.168Z,7.80
2023-02-27T15:10:32.517Z,5.50
2023-02-27T15:13:06.508Z,9.40
2023-02-27T15:15:37.901Z,6.60
2023-02-27T15:18:15.037Z,10.20
2023-02-27T15:20:48.047Z,8.30
2023-02-27T15:23:34.381Z,8.70
2023-02-27T15:26:14.085Z,18.00
2023-02-27T15:28:49.307Z,15.50
2023-02-27T15:31:26.861Z,7.60
2023-02-27T15:33:58.827Z,11.60
2023-02-27T15:36:35.369Z,9.60
2023-02-27T15:39:19.350Z,14.10
2023-02-27T15:41:54.227Z,20.50
2023-02-27T15:44:31.909Z,12.10
2023-02-27T15:47:03.752Z,13.90
2023-02-27T15:49:38.112Z,9.90
2023-02-27T15:52:20.251Z,8.60
2023-02-27T15:54:54.990Z,8.20
2023-02-27T15:57:34.286Z,8.00
2023-02-27T16:00:10.848Z,8.90
2023-02-27T16:02:50.172Z,12.50
2023-02-27T16:05:24.454Z,12.70
2023-02-27T16:07:57.619Z,10.30
2023-02-27T16:10:35.756Z,10.40
2023-02-27T16:13:32.442Z,21.40
2023-02-27T16:16:06.129Z,19.60
2023-02-27T16:18:45.112Z,27.60
2023-02-27T16:21:17.976Z,13.90
2023-02-27T16:23:51.296Z,11.50
2023-02-27T16:26:31.520Z,9.80
2023-02-27T16:29:05.308Z,9.80
2023-02-27T16:31:39.041Z,19.30
2023-02-27T16:34:26.094Z,10.60
2023-02-27T16:37:01.545Z,10.20
2023-02-27T16:39:34.772Z,28.20
2023-02-27T16:42:06.959Z,37.60
2023-02-27T16:44:38.248Z,29.60
2023-02-27T16:47:08.459Z,16.70
2023-02-27T16:49:41.097Z,50.10
2023-02-27T16:52:13.847Z,26.00
2023-02-27T16:54:47.614Z,36.80
2023-02-27T16:57:25.704Z,15.70
2023-02-27T16:59:59.063Z,24.60
2023-02-27T17:02:32.596Z,22.00
2023-02-27T17:05:06.313Z,27.90
2023-02-27T17:07:38.081Z,24.10
2023-02-27T17:10:28.619Z,72.00
2023-02-27T17:13:00.200Z,49.80
2023-02-27T17:15:39.223Z,48.60
2023-02-27T17:18:11.120Z,27.60
2023-02-27T17:20:42.715Z,34.50
2023-02-27T17:23:15.556Z,55.20
2023-02-27T17:25:47.437Z,39.80
2023-02-27T17:28:19.466Z,22.30
2023-02-27T17:30:51.758Z,33.60
2023-02-27T17:33:23.736Z,58.40
2023-02-27T17:36:02.671Z,62.80
2023-02-27T17:38:34.122Z,60.40
2023-02-27T17:41:11.346Z,53.00
2023-02-27T17:43:43.317Z,59.80
2023-02-27T17:46:15.607Z,55.80
2023-02-27T17:48:47.492Z,66.10
2023-02-27T17:51:20.806Z,72.70
2023-02-27T17:53:54.158Z,76.60
2023-02-27T17:56:26.244Z,76.90
2023-02-27T17:58:58.601Z,87.10
2023-02-27T18:01:30.260Z,117.60
2023-02-27T18:04:02.856Z,172.70
2023-02-27T18:06:35.237Z,108.30
2023-02-27T18:09:06.204Z,103.80
2023-02-27T18:11:40.524Z,104.70
2023-02-27T18:14:11.611Z,98.50
2023-02-27T18:16:42.392Z,88.40
2023-02-27T18:19:15.152Z,93.40
2023-02-27T18:21:48.307Z,97.30
2023-02-27T18:24:20.252Z,104.50
2023-02-27T18:26:51.228Z,92.60
2023-02-27T18:29:22.403Z,85.50
2023-02-27T18:31:55.197Z,79.10
2023-02-27T18:34:26.868Z,102.70
2023-02-27T18:36:58.383Z,170.50
2023-02-27T18:39:31.212Z,125.80
2023-02-27T18:42:06.725Z,124.10
2023-02-27T18:44:42.597Z,134.80
2023-02-27T18:47:15.184Z,123.50
2023-02-27T18:49:47.298Z,106.70
2023-02-27T18:52:19.639Z,94.90
2023-02-27T18:54:50.433Z,94.30
2023-02-27T18:57:21.813Z,100.50
2023-02-27T18:59:54.373Z,95.30
2023-02-27T19:02:26.142Z,96.00
2023-02-27T19:04:57.733Z,84.10
2023-02-27T19:07:31.263Z,80.00
2023-02-27T19:10:04.749Z,84.80
2023-02-27T19:12:36.766Z,73.10
2023-02-27T19:15:09.017Z,82.50
2023-02-27T19:17:41.514Z,94.20
2023-02-27T19:20:18.735Z,83.30
2023-02-27T19:22:49.953Z,79.90
2023-02-27T19:25:21.723Z,78.00
2023-02-27T19:27:56.367Z,72.00
2023-02-27T19:30:27.492Z,77.60
2023-02-27T19:32:59.244Z,74.00
2023-02-27T19:35:32.223Z,68.40
2023-02-27T19:38:04.642Z,73.70
2023-02-27T19:40:38.564Z,71.90
2023-02-27T19:43:10.389Z,70.10
2023-02-27T19:45:42.566Z,73.80
2023-02-27T19:48:18.423Z,86.10
2023-02-27T19:50:50.742Z,74.60
2023-02-27T19:53:22.008Z,65.40
2023-02-27T19:56:02.470Z,66.80
2023-02-27T19:58:37.216Z,72.00
2023-02-27T20:01:10.506Z,62.80
2023-02-27T20:03:43.796Z,60.60
2023-02-27T20:06:20.869Z,58.20
2023-02-27T20:08:53.492Z,59.20
2023-02-27T20:11:29.885Z,65.70
2023-02-27T20:14:02.296Z,62.90
2023-02-27T20:16:35.230Z,56.00
2023-02-27T20:19:09.790Z,59.20
2023-02-27T20:21:43.591Z,67.40
2023-02-27T20:24:18.393Z,65.30
2023-02-27T20:26:52.561Z,65.50
2023-02-27T20:29:26.727Z,74.30
2023-02-27T20:31:59.117Z,76.90
2023-02-27T20:34:31.398Z,66.10
2023-02-27T20:37:03.603Z,67.90
2023-02-27T20:39:34.762Z,65.50
2023-02-27T20:42:07.884Z,66.30
2023-02-27T20:44:40.137Z,60.50
2023-02-27T20:47:13.105Z,56.10
2023-02-27T20:49:44.605Z,56.60
2023-02-27T20:52:17.342Z,51.40
2023-02-27T20:54:48.480Z,47.10
2023-02-27T20:57:21.270Z,47.20
2023-02-27T20:59:53.764Z,48.70
2023-02-27T21:02:25.535Z,47.50
2023-02-27T21:04:57.930Z,47.70
2023-02-27T21:07:29.534Z,49.10
2023-02-27T21:10:01.820Z,53.60
2023-02-27T21:12:34.897Z,52.60
2023-02-27T21:15:12.961Z,49.30
2023-02-27T21:17:46.678Z,48.00
2023-02-27T21:20:18.570Z,50.20
2023-02-27T21:22:50.827Z,49.30
2023-02-27T21:25:24.975Z,49.60
2023-02-27T21:28:02.446Z,47.90
2023-02-27T21:30:36.857Z,50.70
2023-02-27T21:33:08.151Z,56.90
2023-02-27T21:35:44.950Z,51.60
2023-02-27T21:38:17.955Z,47.60
2023-02-27T21:40:49.718Z,47.70
2023-02-27T21:43:22.474Z,50.70
2023-02-27T21:45:57.070Z,49.90
2023-02-27T21:48:28.634Z,50.70
2023-02-27T21:51:02.469Z,47.20
2023-02-27T21:53:36.579Z,42.50
2023-02-27T21:56:10.203Z,41.90
2023-02-27T21:58:42.590Z,41.70
2023-02-27T22:01:16.311Z,40.60
2023-02-27T22:03:50.357Z,38.50
2023-02-27T22:06:23.348Z,39.60
2023-02-27T22:08:58.046Z,34.10
2023-02-27T22:11:29.986Z,34.20
2023-02-27T22:14:04.045Z,32.20
2023-02-27T22:16:37.599Z,31.10
2023-02-27T22:19:15.151Z,31.00
2023-02-27T22:21:50.178Z,30.50
2023-02-27T22:24:21.392Z,29.10
2023-02-27T22:26:52.880Z,28.00
2023-02-27T22:29:25.004Z,28.10
2023-02-27T22:31:56.185Z,27.20
2023-02-27T22:34:28.101Z,27.60
2023-02-27T22:36:59.432Z,26.50
2023-02-27T22:39:31.721Z,26.70
2023-02-27T22:42:04.404Z,22.60
2023-02-27T22:44:35.937Z,24.20
2023-02-27T22:47:07.901Z,22.00
2023-02-27T22:49:39.556Z,21.30
2023-02-27T22:52:10.699Z,20.40
2023-02-27T22:54:43.010Z,20.40
2023-02-27T22:57:15.401Z,20.80
2023-02-27T22:59:47.618Z,21.40
2023-02-27T23:02:21.222Z,23.30
2023-02-27T23:04:52.768Z,24.60
2023-02-27T23:07:26.511Z,24.80
2023-02-27T23:09:59.739Z,25.30
2023-02-27T23:12:32.942Z,24.60
2023-02-27T23:15:06.225Z,25.50
2023-02-27T23:17:52.053Z,23.70
2023-02-27T23:20:28.533Z,23.20
2023-02-27T23:23:00.557Z,24.30
2023-02-27T23:25:32.551Z,25.30
2023-02-27T23:28:05.329Z,26.00
2023-02-27T23:30:37.703Z,27.10
2023-02-27T23:33:12.060Z,25.10
2023-02-27T23:35:44.024Z,24.40
2023-02-27T23:38:17.939Z,22.10
2023-02-27T23:40:49.589Z,21.90
2023-02-27T23:43:24.242Z,21.90
2023-02-27T23:45:57.869Z,21.80
2023-02-27T23:48:33.955Z,21.50
2023-02-27T23:51:10.217Z,22.50
2023-02-27T23:53:42.721Z,22.70
2023-02-27T23:56:18.392Z,22.40
2023-02-27T23:58:55.959Z,22.70
